createdAt,value
2023-05-01T00:00:40.769Z,-23529.81
2023-05-01T00:02:43.684Z,-23530.59
2023-05-01T00:04:46.593Z,-23528.06
2023-05-01T00:06:49.593Z,-23527.59
2023-05-01T00:08:52.433Z,-23529.16
2023-05-01T00:10:55.317Z,-23528.69
2023-05-01T00:12:57.972Z,-23533.28
2023-05-01T00:15:00.647Z,-23528.06
2023-05-01T00:17:04.755Z,-23529.66
2023-05-01T00:19:08.274Z,-23527.13
2023-05-01T00:21:11.065Z,-23527.13
2023-05-01T00:23:13.769Z,-23524.25
2023-05-01T00:25:16.630Z,-23526.31
2023-05-01T00:27:19.367Z,-23526.00
2023-05-01T00:29:22.205Z,-23526.47
2023-05-01T00:31:25.674Z,-23523.94
2023-05-01T00:33:29.855Z,-23521.41
2023-05-01T00:35:32.573Z,-23518.56
2023-05-01T00:37:35.712Z,-23514.44
2023-05-01T00:39:38.892Z,-23511.91
2023-05-01T00:41:41.672Z,-23512.22
2023-05-01T00:43:44.365Z,-23508.75
2023-05-01T00:45:47.403Z,-23507.16
2023-05-01T00:47:50.383Z,-23501.78
2023-05-01T00:49:56.422Z,-23502.41
2023-05-01T00:51:59.624Z,-23505.91
2023-05-01T00:54:03.507Z,-23498.44
2023-05-01T00:56:07.279Z,-23503.69
2023-05-01T00:58:11.969Z,-23510.00
2023-05-01T01:00:16.909Z,-23512.53
2023-05-01T01:02:19.657Z,-23510.00
2023-05-01T01:04:22.526Z,-23515.06
2023-05-01T01:06:34.555Z,-23515.25
2023-05-01T01:08:43.457Z,-23520.16
2023-05-01T01:10:54.203Z,-23518.88
2023-05-01T01:13:05.566Z,-23522.53
2023-05-01T01:15:16.015Z,-23519.81
2023-05-01T01:17:25.575Z,-23522.03
2023-05-01T01:19:58.473Z,-23525.22
2023-05-01T01:22:09.138Z,-23520.16
2023-05-01T01:24:30.845Z,-23523.31
2023-05-01T01:27:14.532Z,-23525.53
2023-05-01T01:29:44.940Z,-23519.81
2023-05-01T01:31:58.347Z,-23521.09
2023-05-01T01:34:12.918Z,-23524.91
2023-05-01T01:36:20.060Z,-23524.91
2023-05-01T01:38:26.395Z,-23528.22
2023-05-01T01:40:34.555Z,-23523.00
2023-05-01T01:42:41.668Z,-23522.84
2023-05-01T01:44:50.992Z,-23521.88
2023-05-01T01:46:55.803Z,-23522.03
2023-05-01T01:48:59.345Z,-23526.78
2023-05-01T01:51:10.442Z,-23522.69
2023-05-01T01:53:17.442Z,-23523.00
2023-05-01T01:55:23.991Z,-23523.00
2023-05-01T01:57:28.256Z,-23524.91
2023-05-01T01:59:34.820Z,-23522.38
2023-05-01T02:01:39.760Z,-23522.53
2023-05-01T02:03:42.960Z,-23523.63
2023-05-01T02:05:47.934Z,-23523.00
2023-05-01T02:07:53.754Z,-23522.84
2023-05-01T02:09:58.792Z,-23520.78
2023-05-01T02:12:03.834Z,-23521.88
2023-05-01T02:14:08.855Z,-23523.00
2023-05-01T02:16:13.715Z,-23520.16
2023-05-01T02:18:17.720Z,-23522.38
2023-05-01T02:20:22.482Z,-23522.69
2023-05-01T02:22:27.164Z,-23518.25
2023-05-01T02:24:33.151Z,-23521.09
2023-05-01T02:26:42.509Z,-23520.47
2023-05-01T02:28:45.348Z,-23514.59
2023-05-01T02:30:48.067Z,-23518.88
2023-05-01T02:32:50.910Z,-23516.50
2023-05-01T02:34:53.652Z,-23517.28
2023-05-01T02:36:56.335Z,-23517.47
2023-05-01T02:38:59.466Z,-23514.13
2023-05-01T02:41:04.685Z,-23511.59
2023-05-01T02:43:11.826Z,-23511.91
2023-05-01T02:45:20.574Z,-23510.97
2023-05-01T02:47:24.882Z,-23511.28
2023-05-01T02:49:28.715Z,-23511.28
2023-05-01T02:51:32.651Z,-23510.66
2023-05-01T02:53:36.337Z,-23511.59
2023-05-01T02:55:39.574Z,-23514.13
2023-05-01T02:57:43.794Z,-23511.75
2023-05-01T02:59:46.495Z,-23510.97
2023-05-01T03:01:49.269Z,-23512.53
2023-05-01T03:03:52.354Z,-23516.34
2023-05-01T03:05:55.744Z,-23511.75
2023-05-01T03:07:58.571Z,-23515.56
2023-05-01T03:10:03.077Z,-23511.28
2023-05-01T03:12:06.511Z,-23509.06
2023-05-01T03:14:11.253Z,-23508.91
2023-05-01T03:16:14.180Z,-23508.44
2023-05-01T03:18:17.018Z,-23508.44
2023-05-01T03:20:19.759Z,-23507.31
2023-05-01T03:22:22.667Z,-23508.09
2023-05-01T03:24:25.354Z,-23507.47
2023-05-01T03:26:28.505Z,-23508.59
2023-05-01T03:28:31.561Z,-23507.31
2023-05-01T03:30:36.258Z,-23507.78
2023-05-01T03:32:39.028Z,-23506.22
2023-05-01T03:34:41.791Z,-23506.53
2023-05-01T03:36:44.524Z,-23506.84
2023-05-01T03:38:47.621Z,-23506.84
2023-05-01T03:40:50.410Z,-23509.38
2023-05-01T03:42:53.919Z,-23505.91
2023-05-01T03:44:57.098Z,-23504.16
2023-05-01T03:47:01.753Z,-23504.94
2023-05-01T03:49:04.843Z,-23503.19
2023-05-01T03:51:07.702Z,-23504.63
2023-05-01T03:53:10.610Z,-23503.19
2023-05-01T03:55:13.329Z,-23502.88
2023-05-01T03:57:16.098Z,-23501.94
2023-05-01T03:59:19.005Z,-23500.03
2023-05-01T04:01:22.046Z,-23499.25
2023-05-01T04:03:26.257Z,-23499.25
2023-05-01T04:05:29.017Z,-23497.34
2023-05-01T04:07:31.927Z,-23497.97
2023-05-01T04:09:34.576Z,-23496.22
2023-05-01T04:11:37.348Z,-23497.34
2023-05-01T04:13:40.116Z,-23496.38
2023-05-01T04:15:45.836Z,-23495.44
2023-05-01T04:17:48.620Z,-23494.31
2023-05-01T04:19:52.781Z,-23496.06
2023-05-01T04:21:56.807Z,-23494.50
2023-05-01T04:23:59.585Z,-23495.28
2023-05-01T04:26:02.498Z,-23493.53
2023-05-01T04:28:05.602Z,-23495.59
2023-05-01T04:30:09.551Z,-23496.22
2023-05-01T04:32:12.377Z,-23495.44
2023-05-01T04:34:15.051Z,-23498.44
2023-05-01T04:36:19.177Z,-23498.44
2023-05-01T04:38:21.930Z,-23497.34
2023-05-01T04:40:24.672Z,-23497.34
2023-05-01T04:42:31.751Z,-23497.97
2023-05-01T04:44:35.886Z,-23495.59
2023-05-01T04:46:40.393Z,-23496.38
2023-05-01T04:48:47.378Z,-23495.44
2023-05-01T04:50:50.256Z,-23500.97
2023-05-01T04:52:54.369Z,-23498.28
2023-05-01T04:54:57.944Z,-23498.28
2023-05-01T04:57:00.764Z,-23506.53
2023-05-01T04:59:03.565Z,-23503.34
2023-05-01T05:01:06.429Z,-23506.06
2023-05-01T05:03:09.314Z,-23506.22
2023-05-01T05:05:12.310Z,-23500.50
2023-05-01T05:07:15.156Z,-23502.56
2023-05-01T05:09:20.178Z,-23501.78
2023-05-01T05:11:23.196Z,-23500.19
2023-05-01T05:13:25.907Z,-23505.09
2023-05-01T05:15:28.682Z,-23498.28
2023-05-01T05:17:31.532Z,-23501.13
2023-05-01T05:19:34.316Z,-23500.19
2023-05-01T05:21:37.290Z,-23506.22
2023-05-01T05:23:39.928Z,-23497.97
2023-05-01T05:25:44.086Z,-23497.97
2023-05-01T05:27:46.844Z,-23497.66
2023-05-01T05:29:49.628Z,-23504.78
2023-05-01T05:31:52.375Z,-23504.31
2023-05-01T05:33:55.131Z,-23506.22
2023-05-01T05:35:59.906Z,-23501.13
2023-05-01T05:38:03.066Z,-23499.56
2023-05-01T05:40:06.804Z,-23496.38
2023-05-01T05:42:10.901Z,-23502.09
2023-05-01T05:44:13.555Z,-23496.06
2023-05-01T05:46:16.318Z,-23493.22
2023-05-01T05:48:19.144Z,-23489.72
2023-05-01T05:50:21.942Z,-23487.50
2023-05-01T05:52:24.619Z,-23487.50
2023-05-01T05:54:27.432Z,-23485.91
2023-05-01T05:56:30.139Z,-23482.44
2023-05-01T05:58:34.316Z,-23477.69
2023-05-01T06:00:37.131Z,-23478.00
2023-05-01T06:02:40.228Z,-23473.25
2023-05-01T06:04:42.952Z,-23476.41
2023-05-01T06:06:45.788Z,-23470.88
2023-05-01T06:08:48.541Z,-23470.69
2023-05-01T06:10:51.410Z,-23474.97
2023-05-01T06:12:58.719Z,-23482.13
2023-05-01T06:15:17.844Z,-23481.47
2023-05-01T06:17:20.774Z,-23483.38
2023-05-01T06:19:23.560Z,-23484.66
2023-05-01T06:21:26.309Z,-23484.97
2023-05-01T06:23:29.453Z,-23494.50
2023-05-01T06:25:32.126Z,-23487.50
2023-05-01T06:27:34.853Z,-23491.47
2023-05-01T06:29:37.934Z,-23495.44
2023-05-01T06:31:42.086Z,-23499.56
2023-05-01T06:33:44.792Z,-23493.22
2023-05-01T06:35:47.496Z,-23498.75
2023-05-01T06:37:50.232Z,-23489.91
2023-05-01T06:39:52.941Z,-23491.00
2023-05-01T06:41:55.827Z,-23493.38
2023-05-01T06:43:58.521Z,-23497.66
2023-05-01T06:46:01.390Z,-23492.59
2023-05-01T06:48:06.125Z,-23485.59
2023-05-01T06:50:10.367Z,-23481.81
2023-05-01T06:52:13.042Z,-23489.72
2023-05-01T06:54:15.810Z,-23491.31
2023-05-01T06:56:18.544Z,-23486.25
2023-05-01T06:58:24.053Z,-23485.59
2023-05-01T07:00:27.279Z,-23488.47
2023-05-01T07:02:30.129Z,-23491.00
2023-05-01T07:04:34.623Z,-23497.66
2023-05-01T07:06:37.848Z,-23500.03
2023-05-01T07:08:40.678Z,-23490.38
2023-05-01T07:10:43.628Z,-23487.03
2023-05-01T07:12:46.512Z,-23497.03
2023-05-01T07:14:49.543Z,-23504.63
2023-05-01T07:16:52.402Z,-23507.00
2023-05-01T07:18:55.126Z,-23494.66
2023-05-01T07:20:59.131Z,-23500.66
2023-05-01T07:23:02.131Z,-23505.56
2023-05-01T07:25:05.191Z,-23495.91
2023-05-01T07:27:07.894Z,-23507.31
2023-05-01T07:29:11.863Z,-23511.59
2023-05-01T07:31:14.604Z,-23514.75
2023-05-01T07:33:17.391Z,-23515.56
2023-05-01T07:35:20.275Z,-23504.31
2023-05-01T07:37:24.354Z,-23520.16
2023-05-01T07:39:27.283Z,-23513.50
2023-05-01T07:41:29.975Z,-23526.16
2023-05-01T07:43:32.677Z,-23536.44
2023-05-01T07:45:35.412Z,-23530.59
2023-05-01T07:47:38.307Z,-23540.56
2023-05-01T07:49:41.349Z,-23535.97
2023-05-01T07:51:45.492Z,-23540.88
2023-05-01T07:53:50.012Z,-23526.78
2023-05-01T07:55:52.710Z,-23535.19
2023-05-01T07:57:56.064Z,-23545.00
2023-05-01T07:59:58.985Z,-23536.78
2023-05-01T08:02:02.038Z,-23532.81
2023-05-01T08:04:05.188Z,-23521.25
2023-05-01T08:06:08.223Z,-23527.13
2023-05-01T08:08:13.285Z,-23538.50
2023-05-01T08:10:17.570Z,-23542.47
2023-05-01T08:12:20.329Z,-23554.19
2023-05-01T08:14:23.078Z,-23551.97
2023-05-01T08:16:25.961Z,-23548.16
2023-05-01T08:18:28.760Z,-23557.66
2023-05-01T08:20:31.741Z,-23536.44
2023-05-01T08:22:34.404Z,-23540.41
2023-05-01T08:24:37.116Z,-23545.78
2023-05-01T08:26:41.337Z,-23545.16
2023-05-01T08:28:44.036Z,-23543.56
2023-05-01T08:30:46.769Z,-23554.50
2023-05-01T08:32:49.615Z,-23553.69
2023-05-01T08:34:52.517Z,-23562.88
2023-05-01T08:36:55.255Z,-23553.84
2023-05-01T08:38:58.181Z,-23562.56
2023-05-01T08:41:01.736Z,-23571.09
2023-05-01T08:43:06.191Z,-23580.09
2023-05-01T08:45:10.725Z,-23569.03
2023-05-01T08:47:17.421Z,-23560.03
2023-05-01T08:49:22.590Z,-23573.47
2023-05-01T08:51:26.853Z,-23565.41
2023-05-01T08:53:30.599Z,-23567.31
2023-05-01T08:55:35.997Z,-23573.94
2023-05-01T08:57:39.534Z,-23573.00
2023-05-01T08:59:45.043Z,-23594.16
2023-05-01T09:01:48.737Z,-23615.97
2023-05-01T09:03:53.787Z,-23617.88
2023-05-01T09:05:57.267Z,-23596.38
2023-05-01T09:08:00.579Z,-23594.03
2023-05-01T09:10:03.677Z,-23580.44
2023-05-01T09:12:15.890Z,-23598.59
2023-05-01T09:14:18.632Z,-23610.75
2023-05-01T09:16:23.240Z,-23606.50
2023-05-01T09:18:26.090Z,-23600.03
2023-05-01T09:20:29.620Z,-23584.69
2023-05-01T09:22:32.675Z,-23593.22
2023-05-01T09:24:35.451Z,-23615.03
2023-05-01T09:26:41.902Z,-23611.22
2023-05-01T09:28:44.990Z,-23607.75
2023-05-01T09:30:47.691Z,-23609.97
2023-05-01T09:33:05.691Z,-23616.28
2023-05-01T09:35:13.501Z,-23636.34
2023-05-01T09:37:28.570Z,-23645.97
2023-05-01T09:39:31.373Z,-23650.53
2023-05-01T09:41:34.268Z,-23662.03
2023-05-01T09:43:37.051Z,-23687.25
2023-05-01T09:45:40.174Z,-23700.81
2023-05-01T09:47:43.772Z,-23683.16
2023-05-01T09:49:49.220Z,-23713.88
2023-05-01T09:51:52.041Z,-23665.34
2023-05-01T09:53:56.821Z,-23670.25
2023-05-01T09:56:02.984Z,-23692.94
2023-05-01T09:58:06.526Z,-23686.31
2023-05-01T10:00:11.025Z,-23671.81
2023-05-01T10:02:30.420Z,-23645.66
2023-05-01T10:04:34.125Z,-23695.16
2023-05-01T10:06:38.767Z,-23708.38
2023-05-01T10:08:48.965Z,-23667.56
2023-05-01T10:11:01.569Z,-23674.81
2023-05-01T10:13:15.172Z,-23663.78
2023-05-01T10:15:25.375Z,-23665.50
2023-05-01T10:17:28.740Z,-23681.28
2023-05-01T10:19:31.774Z,-23678.44
2023-05-01T10:21:35.426Z,-23673.72
2023-05-01T10:23:39.638Z,-23662.69
2023-05-01T10:25:43.111Z,-23667.88
2023-05-01T10:27:46.139Z,-23668.66
2023-05-01T10:29:52.450Z,-23677.50
2023-05-01T10:31:56.247Z,-23645.16
2023-05-01T10:34:00.692Z,-23645.78
2023-05-01T10:36:04.972Z,-23655.75
2023-05-01T10:38:10.825Z,-23650.38
2023-05-01T10:40:46.417Z,-23655.41
2023-05-01T10:43:14.261Z,-23652.09
2023-05-01T10:45:30.140Z,-23653.38
2023-05-01T10:47:45.629Z,-23662.84
2023-05-01T10:50:05.893Z,-23658.25
2023-05-01T10:52:08.748Z,-23651.00
2023-05-01T10:54:27.741Z,-23646.28
2023-05-01T10:56:44.077Z,-23653.06
2023-05-01T10:58:58.953Z,-23655.41
2023-05-01T11:01:35.412Z,-23650.38
2023-05-01T11:03:40.268Z,-23654.47
2023-05-01T11:06:09.449Z,-23657.31
2023-05-01T11:08:30.621Z,-23656.84
2023-05-01T11:10:33.413Z,-23664.25
2023-05-01T11:12:53.849Z,-23645.00
2023-05-01T11:15:04.586Z,-23643.44
2023-05-01T11:17:07.493Z,-23638.06
2023-05-01T11:19:12.761Z,-23637.13
2023-05-01T11:21:16.377Z,-23653.22
2023-05-01T11:23:23.736Z,-23647.38
2023-05-01T11:25:28.229Z,-23662.22
2023-05-01T11:27:31.536Z,-23658.56
2023-05-01T11:29:37.500Z,-23657.31
2023-05-01T11:31:41.297Z,-23646.59
2023-05-01T11:33:44.573Z,-23644.22
2023-05-01T11:35:47.723Z,-23642.81
2023-05-01T11:37:51.818Z,-23640.75
2023-05-01T11:39:55.188Z,-23644.38
2023-05-01T11:42:07.760Z,-23651.94
2023-05-01T11:44:13.845Z,-23653.84
2023-05-01T11:46:24.934Z,-23641.22
2023-05-01T11:48:28.449Z,-23656.22
2023-05-01T11:50:36.069Z,-23650.53
2023-05-01T11:52:48.638Z,-23647.53
2023-05-01T11:54:51.162Z,-23641.53
2023-05-01T11:57:01.001Z,-23644.22
2023-05-01T11:59:12.584Z,-23653.53
2023-05-01T12:01:15.446Z,-23649.75
2023-05-01T12:03:19.695Z,-23648.78
2023-05-01T12:05:23.536Z,-23637.75
2023-05-01T12:07:26.279Z,-23633.34
2023-05-01T12:09:30.138Z,-23643.44
2023-05-01T12:11:33.054Z,-23646.28
2023-05-01T12:13:36.323Z,-23643.75
2023-05-01T12:15:41.980Z,-23644.22
2023-05-01T12:17:46.842Z,-23646.91
2023-05-01T12:19:51.210Z,-23638.06
2023-05-01T12:22:06.455Z,-23639.34
2023-05-01T12:24:10.444Z,-23630.50
2023-05-01T12:26:20.248Z,-23630.50
2023-05-01T12:28:23.121Z,-23624.50
2023-05-01T12:30:27.039Z,-23635.53
2023-05-01T12:32:33.633Z,-23646.28
2023-05-01T12:34:36.802Z,-23656.53
2023-05-01T12:36:40.946Z,-23644.06
2023-05-01T12:38:56.698Z,-23640.75
2023-05-01T12:41:01.859Z,-23634.91
2023-05-01T12:43:04.670Z,-23642.47
2023-05-01T12:45:09.705Z,-23653.84
2023-05-01T12:47:13.964Z,-23643.91
2023-05-01T12:49:20.460Z,-23646.44
2023-05-01T12:51:23.048Z,-23657.47
2023-05-01T12:53:28.819Z,-23672.13
2023-05-01T12:55:34.222Z,-23676.06
2023-05-01T12:57:36.947Z,-23665.69
2023-05-01T12:59:41.106Z,-23680.97
2023-05-01T13:01:43.914Z,-23683.78
2023-05-01T13:03:46.814Z,-23685.22
2023-05-01T13:05:57.620Z,-23666.47
2023-05-01T13:08:00.467Z,-23642.31
2023-05-01T13:10:06.288Z,-23660.16
2023-05-01T13:12:10.246Z,-23674.66
2023-05-01T13:14:13.383Z,-23672.75
2023-05-01T13:16:17.303Z,-23660.63
2023-05-01T13:18:20.358Z,-23651.94
2023-05-01T13:20:27.675Z,-23660.78
2023-05-01T13:22:34.256Z,-23643.91
2023-05-01T13:24:39.194Z,-23643.75
2023-05-01T13:26:43.333Z,-23636.97
2023-05-01T13:28:46.368Z,-23637.75
2023-05-01T13:30:49.400Z,-23633.19
2023-05-01T13:32:52.256Z,-23624.19
2023-05-01T13:34:55.066Z,-23620.56
2023-05-01T13:36:58.662Z,-23614.38
2023-05-01T13:39:01.487Z,-23607.75
2023-05-01T13:41:05.233Z,-23595.44
2023-05-01T13:43:15.876Z,-23596.06
2023-05-01T13:45:21.465Z,-23590.38
2023-05-01T13:47:27.033Z,-23585.16
2023-05-01T13:49:29.970Z,-23591.66
2023-05-01T13:51:33.265Z,-23584.38
2023-05-01T13:53:36.912Z,-23566.66
2023-05-01T13:55:41.788Z,-23567.63
2023-05-01T13:57:44.575Z,-23560.19
2023-05-01T13:59:48.981Z,-23554.97
2023-05-01T14:01:51.991Z,-16450.09
2023-05-01T14:03:57.714Z,-23557.19
2023-05-01T14:06:00.723Z,-23571.09
2023-05-01T14:08:03.560Z,-23567.63
2023-05-01T14:10:11.034Z,-23565.72
2023-05-01T14:12:14.664Z,-23560.19
2023-05-01T14:14:18.335Z,-23566.34
2023-05-01T14:16:25.953Z,-23566.03
2023-05-01T14:18:29.011Z,-23577.72
2023-05-01T14:20:32.110Z,-23572.34
2023-05-01T14:22:43.310Z,-23578.53
2023-05-01T14:24:46.199Z,-23582.78
2023-05-01T14:26:50.270Z,-23579.31
2023-05-01T14:28:53.384Z,-23582.16
2023-05-01T14:30:56.258Z,-23574.25
2023-05-01T14:33:03.422Z,-23578.22
2023-05-01T14:35:10.962Z,-23571.09
2023-05-01T14:37:15.062Z,-23577.41
2023-05-01T14:39:18.113Z,-23584.06
2023-05-01T14:41:21.063Z,-23585.00
2023-05-01T14:43:23.799Z,-23599.22
2023-05-01T14:45:26.525Z,-23589.28
2023-05-01T14:47:29.268Z,-23599.84
2023-05-01T14:49:33.493Z,-23599.69
2023-05-01T14:51:36.254Z,-23605.38
2023-05-01T14:53:42.046Z,-23603.66
2023-05-01T14:55:44.754Z,-23605.53
2023-05-01T14:57:48.519Z,-23608.88
2023-05-01T14:59:51.305Z,-23606.34
2023-05-01T15:01:54.133Z,-23600.81
2023-05-01T15:03:57.198Z,-23597.00
2023-05-01T15:06:01.507Z,-23596.38
2023-05-01T15:08:05.664Z,-23582.63
2023-05-01T15:10:09.154Z,-23574.56
2023-05-01T15:12:11.853Z,-23568.25
2023-05-01T15:14:14.569Z,-16959.13
2023-05-01T15:16:17.719Z,-3481.31
2023-05-01T15:18:20.618Z,5949.69
2023-05-01T15:20:24.430Z,19979.38
2023-05-01T15:22:28.546Z,24230.28
2023-05-01T15:24:31.269Z,22595.13
2023-05-01T15:26:34.007Z,30131.31
2023-05-01T15:28:36.836Z,39643.28
2023-05-01T15:30:39.585Z,32102.44
2023-05-01T15:32:42.541Z,5949.69
2023-05-01T15:34:45.505Z,7577.03
2023-05-01T15:36:48.207Z,3342.41
2023-05-01T15:38:52.196Z,15068.94
2023-05-01T15:40:55.061Z,30428.09
2023-05-01T15:42:58.589Z,41913.09
2023-05-01T15:45:03.055Z,35004.97
2023-05-01T15:47:05.828Z,24533.44
2023-05-01T15:49:10.008Z,28135.88
2023-05-01T15:51:12.886Z,15072.03
2023-05-01T15:53:17.091Z,-23571.09
2023-05-01T15:55:21.705Z,-23565.41
2023-05-01T15:57:24.920Z,-23570.16
2023-05-01T15:59:27.787Z,-23574.72
2023-05-01T16:01:32.151Z,-23573.00
2023-05-01T16:03:35.392Z,-23584.06
2023-05-01T16:05:40.597Z,-23580.28
2023-05-01T16:07:45.868Z,-23583.44
2023-05-01T16:09:49.205Z,-23581.22
2023-05-01T16:11:53.567Z,-23585.47
2023-05-01T16:13:56.537Z,-23588.00
2023-05-01T16:15:59.429Z,-23580.09
2023-05-01T16:18:04.545Z,-23583.13
2023-05-01T16:20:11.355Z,-23579.78
2023-05-01T16:22:15.720Z,-23577.25
2023-05-01T16:24:18.620Z,-23570.31
2023-05-01T16:26:26.093Z,-23570.63
2023-05-01T16:28:31.712Z,-23563.19
2023-05-01T16:30:34.641Z,-23563.19
2023-05-01T16:32:37.529Z,-23563.81
2023-05-01T16:34:41.128Z,-23566.34
2023-05-01T16:36:44.816Z,-14187.78
2023-05-01T16:38:47.868Z,-11916.72
2023-05-01T16:40:51.708Z,6275.00
2023-05-01T16:42:56.171Z,14421.66
2023-05-01T16:45:01.732Z,18990.00
2023-05-01T16:47:05.136Z,18334.63
2023-05-01T16:49:08.021Z,14092.28
2023-05-01T16:51:11.921Z,4318.88
2023-05-01T16:53:15.234Z,1391.44
2023-05-01T16:55:18.656Z,-19255.63
2023-05-01T16:57:21.460Z,-10617.00
2023-05-01T16:59:24.218Z,-9644.44
2023-05-01T17:01:28.540Z,-558.94
2023-05-01T17:03:31.284Z,10826.88
2023-05-01T17:05:34.002Z,22576.00
2023-05-01T17:07:36.697Z,14414.41
2023-05-01T17:09:39.537Z,-23546.59
2023-05-01T17:11:43.149Z,-23547.69
2023-05-01T17:13:45.957Z,-23550.53
2023-05-01T17:15:49.011Z,-23551.81
2023-05-01T17:17:53.733Z,-23554.97
2023-05-01T17:19:56.840Z,-23550.22
2023-05-01T17:21:59.840Z,-23547.53
2023-05-01T17:24:02.783Z,-23544.22
2023-05-01T17:26:05.802Z,-23539.94
2023-05-01T17:28:08.690Z,-23547.84
2023-05-01T17:30:12.218Z,-23543.56
2023-05-01T17:32:25.738Z,-23545.78
2023-05-01T17:34:37.490Z,-23548.00
2023-05-01T17:36:40.224Z,-23548.97
2023-05-01T17:38:42.928Z,-23549.75
2023-05-01T17:40:46.298Z,-23546.59
2023-05-01T17:42:49.017Z,-7698.34
2023-05-01T17:44:51.773Z,9848.91
2023-05-01T17:46:56.055Z,19305.97
2023-05-01T17:48:58.807Z,24209.28
2023-05-01T17:51:02.989Z,21923.69
2023-05-01T17:53:05.646Z,17671.88
2023-05-01T17:55:09.096Z,21264.00
2023-05-01T17:57:11.915Z,16695.69
2023-05-01T17:59:14.681Z,18654.69
2023-05-01T18:01:17.661Z,9200.38
2023-05-01T18:03:20.561Z,-20928.06
2023-05-01T18:05:23.661Z,-23547.38
2023-05-01T18:07:30.391Z,-23545.16
2023-05-01T18:09:33.193Z,-23539.78
2023-05-01T18:11:36.148Z,-23541.69
2023-05-01T18:13:40.007Z,-23544.22
2023-05-01T18:15:42.877Z,-23543.25
2023-05-01T18:17:45.664Z,-23543.56
2023-05-01T18:19:48.514Z,-23544.06
2023-05-01T18:21:51.732Z,-23542.00
2023-05-01T18:23:55.853Z,-23538.66
2023-05-01T18:25:58.596Z,-23539.78
2023-05-01T18:28:01.549Z,-23540.72
2023-05-01T18:30:04.594Z,-23532.97
2023-05-01T18:32:09.363Z,-23531.84
2023-05-01T18:34:12.946Z,-23530.91
2023-05-01T18:36:15.657Z,-19981.84
2023-05-01T18:38:18.438Z,-8990.22
2023-05-01T18:40:22.757Z,1709.09
2023-05-01T18:42:25.828Z,7234.25
2023-05-01T18:44:28.635Z,7231.50
2023-05-01T18:46:31.594Z,15045.59
2023-05-01T18:48:34.563Z,15697.78
2023-05-01T18:50:37.256Z,15047.91
2023-05-01T18:52:41.789Z,16349.47
2023-05-01T18:54:44.701Z,20590.06
2023-05-01T18:56:49.007Z,25156.13
2023-05-01T18:58:51.831Z,33002.78
2023-05-01T19:00:56.130Z,39558.34
2023-05-01T19:02:59.010Z,38574.50
2023-05-01T19:05:01.832Z,33991.59
2023-05-01T19:07:05.174Z,30057.97
2023-05-01T19:09:07.955Z,37257.19
2023-05-01T19:11:10.800Z,39874.38
2023-05-01T19:13:14.974Z,42498.88
2023-05-01T19:15:17.985Z,45445.81
2023-05-01T19:17:20.697Z,47094.03
2023-05-01T19:19:23.407Z,40201.84
2023-05-01T19:21:26.429Z,34305.25
2023-05-01T19:23:30.644Z,29070.75
2023-05-01T19:25:34.274Z,19928.88
2023-05-01T19:27:37.162Z,18951.53
2023-05-01T19:29:41.605Z,21239.66
2023-05-01T19:31:44.486Z,27765.47
2023-05-01T19:33:48.073Z,33328.88
2023-05-01T19:35:50.801Z,44467.56
2023-05-01T19:37:56.146Z,47420.78
2023-05-01T19:39:59.187Z,49057.66
2023-05-01T19:42:02.301Z,39545.53
2023-05-01T19:44:05.342Z,24494.53
2023-05-01T19:46:09.906Z,6579.16
2023-05-01T19:48:13.021Z,-239.91
2023-05-01T19:50:18.464Z,-9636.19
2023-05-01T19:52:21.411Z,-7694.09
2023-05-01T19:54:25.965Z,-7693.56
2023-05-01T19:56:28.673Z,-14811.63
2023-05-01T19:58:32.042Z,-17144.28
2023-05-01T20:00:35.814Z,-17664.44
2023-05-01T20:02:43.428Z,-10930.25
2023-05-01T20:04:46.664Z,-3806.72
2023-05-01T20:06:49.582Z,-889.31
2023-05-01T20:08:52.461Z,13730.31
2023-05-01T20:10:56.726Z,21226.66
2023-05-01T20:12:59.962Z,16011.09
2023-05-01T20:15:02.745Z,16336.00
2023-05-01T20:17:07.165Z,21549.09
2023-05-01T20:19:11.598Z,29712.75
2023-05-01T20:21:14.570Z,37234.91
2023-05-01T20:23:18.973Z,42144.38
2023-05-01T20:25:21.699Z,42152.69
2023-05-01T20:27:24.522Z,43131.81
2023-05-01T20:29:27.337Z,45426.78
2023-05-01T20:31:30.237Z,49040.69
2023-05-01T20:33:32.985Z,50356.41
2023-05-01T20:35:37.103Z,53648.00
2023-05-01T20:37:39.948Z,53317.28
2023-05-01T20:39:42.650Z,54306.25
2023-05-01T20:41:45.599Z,56928.88
2023-05-01T20:43:48.381Z,54298.09
2023-05-01T20:45:51.143Z,48054.66
2023-05-01T20:47:54.531Z,49369.13
2023-05-01T20:49:57.682Z,47728.03
2023-05-01T20:52:02.402Z,46411.22
2023-05-01T20:54:05.935Z,45426.78
2023-05-01T20:56:08.721Z,47723.78
2023-05-01T20:58:11.490Z,47714.47
2023-05-01T21:00:14.586Z,49355.13
2023-05-01T21:02:17.965Z,50335.91
2023-05-01T21:04:20.980Z,55261.97
2023-05-01T21:06:23.968Z,59535.22
2023-05-01T21:08:28.371Z,60208.31
2023-05-01T21:10:31.613Z,57892.84
2023-05-01T21:12:34.867Z,57885.75
2023-05-01T21:14:38.672Z,61163.13
2023-05-01T21:16:41.963Z,64129.78
2023-05-01T21:18:44.845Z,63144.28
2023-05-01T21:20:48.876Z,64128.09
2023-05-01T21:22:51.672Z,61823.75
2023-05-01T21:24:57.541Z,59843.41
2023-05-01T21:27:01.572Z,59831.38
2023-05-01T21:29:04.381Z,52600.75
2023-05-01T21:31:07.249Z,45706.00
2023-05-01T21:33:15.092Z,41773.44
2023-05-01T21:35:20.062Z,36862.63
2023-05-01T21:37:23.473Z,25757.63
2023-05-01T21:39:26.443Z,17610.00
2023-05-01T21:41:30.665Z,11434.09
2023-05-01T21:43:34.534Z,3967.66
2023-05-01T21:45:40.443Z,-6071.38
2023-05-01T21:47:45.308Z,-18332.22
2023-05-01T21:49:48.448Z,-21197.75
2023-05-01T21:51:51.266Z,-17103.47
2023-05-01T21:53:54.381Z,-10917.78
2023-05-01T21:55:57.183Z,76.75
2023-05-01T21:58:01.630Z,7209.34
2023-05-01T22:00:09.202Z,6558.66
2023-05-01T22:02:13.194Z,9155.19
2023-05-01T22:04:18.913Z,4936.94
2023-05-01T22:06:24.156Z,7854.59
2023-05-01T22:08:26.907Z,8827.69
2023-05-01T22:10:29.760Z,10775.16
2023-05-01T22:12:32.587Z,8503.38
2023-05-01T22:14:47.187Z,12073.25
2023-05-01T22:16:50.466Z,13695.63
2023-05-01T22:18:53.255Z,20849.09
2023-05-01T22:20:56.228Z,27686.59
2023-05-01T22:22:58.994Z,31276.22
2023-05-01T22:25:01.843Z,32578.69
2023-05-01T22:27:04.773Z,33230.94
2023-05-01T22:29:08.310Z,34863.50
2023-05-01T22:31:12.627Z,37801.09
2023-05-01T22:33:15.390Z,40738.66
2023-05-01T22:35:18.427Z,43028.44
2023-05-01T22:37:21.292Z,43028.44
2023-05-01T22:39:24.074Z,44329.56
2023-05-01T22:41:26.995Z,46295.25
2023-05-01T22:43:29.748Z,48585.78
2023-05-01T22:45:32.633Z,49237.13
2023-05-01T22:47:36.760Z,50878.38
2023-05-01T22:49:39.513Z,52513.97
2023-05-01T22:51:42.265Z,48910.38
2023-05-01T22:53:45.590Z,44984.53
2023-05-01T22:55:48.446Z,41380.50
2023-05-01T22:57:51.176Z,38438.06
2023-05-01T22:59:54.098Z,36150.66
2023-05-01T23:01:56.896Z,35171.19
2023-05-01T23:04:01.276Z,35175.66
2023-05-01T23:06:04.369Z,32883.06
2023-05-01T23:08:07.442Z,37781.25
2023-05-01T23:10:10.811Z,36804.09
2023-05-01T23:12:19.398Z,37774.41
2023-05-01T23:14:22.079Z,41038.03
2023-05-01T23:16:25.027Z,41041.34
2023-05-01T23:18:32.835Z,39078.53
2023-05-01T23:20:39.942Z,43978.72
2023-05-01T23:22:42.636Z,43979.09
2023-05-01T23:24:48.213Z,44961.25
2023-05-01T23:26:51.006Z,42671.03
2023-05-01T23:28:54.323Z,45607.06
2023-05-01T23:30:58.202Z,49862.41
2023-05-01T23:33:00.984Z,51832.53
2023-05-01T23:35:10.666Z,51172.66
2023-05-01T23:37:14.750Z,52161.63
2023-05-01T23:39:17.423Z,50846.84
2023-05-01T23:41:20.110Z,49205.69
2023-05-01T23:43:23.205Z,46914.25
2023-05-01T23:45:25.914Z,43643.84
2023-05-01T23:47:28.792Z,45267.81
2023-05-01T23:49:31.814Z,48211.06
2023-05-01T23:51:35.155Z,50176.16
2023-05-01T23:53:39.209Z,51153.66